Terminal Aerodrome Forecast
Issued by NWS

Home | Current Version | Previous Version | Text Only | Print | Product List | Glossary On
Versions: 1 2 3 4 5 6 7 8 9 10 11 12 13 14 15 16 17 18 19 20 21
403
FTUS41 KILN 240132 AAA
TAFLUK
TAF AMD
KLUK 240132Z 2402/2424 26012KT P6SM VCSH OVC015
      TEMPO 2402/2404 3SM -SHRA OVC009
     FM240400 26010KT P6SM VCSH BKN045
     FM240900 21010KT P6SM -SHRA OVC015
     FM241300 24010KT P6SM BKN025
     FM241600 24014G24KT P6SM BKN040=

USA.gov is the U.S. government's official web portal to all federal, state and local government web resources and services.